McAlester, Oklahoma
Current Conditions -  °F | °C
As of 1:33 AM on Sunday 23 Nov 2014 (Local Time) from KMLC Reporting Station
Broken Clouds Broken Clouds  
Wind Chill: 60°   Ceiling: 2700
Heat Index: 60°   Visibility: 10mi
Dew Point: 57°   Wind: 7mph
Humidity: 90%   Direction: NA
Pressure: 29.64"   Gusts: NA
Location:  34.93°N, 95.77°W
Report Text: KMLC 230733Z AUTO VRB06KT 10SM FEW013 BKN027 16/14 A2964 RMK AO2 T01560139
Loading
Personal Weather Stations






























Interactive Weather Map New forecast layout! Learn more

10-Day Weather Forecast

Advertisements
Track Severe Weather on mobile